sensor_id;sensor_type;location;lat;lon;timestamp;temperature;humidity
19363;DHT22;9817;50.80926400;5.16316200;2023-05-21T00:01:37;16.10;99.90
19363;DHT22;9817;50.80926400;5.16316200;2023-05-21T00:04:06;16.10;99.90
19363;DHT22;9817;50.80926400;5.16316200;2023-05-21T00:06:35;16.00;99.90
19363;DHT22;9817;50.80926400;5.16316200;2023-05-21T00:09:02;16.00;99.90
19363;DHT22;9817;50.80926400;5.16316200;2023-05-21T00:11:28;15.90;99.90
19363;DHT22;9817;50.80926400;5.16316200;2023-05-21T00:13:53;15.80;99.90
19363;DHT22;9817;50.80926400;5.16316200;2023-05-21T00:16:19;15.70;99.90
19363;DHT22;9817;50.80926400;5.16316200;2023-05-21T00:18:45;15.70;99.90
19363;DHT22;9817;50.80926400;5.16316200;2023-05-21T00:21:11;15.70;99.90
19363;DHT22;9817;50.80926400;5.16316200;2023-05-21T00:23:38;15.80;99.90
19363;DHT22;9817;50.80926400;5.16316200;2023-05-21T00:26:05;15.70;99.90
19363;DHT22;9817;50.80926400;5.16316200;2023-05-21T00:28:31;15.80;99.90
19363;DHT22;9817;50.80926400;5.16316200;2023-05-21T00:30:56;15.80;99.90
19363;DHT22;9817;50.80926400;5.16316200;2023-05-21T00:33:22;15.80;99.90
19363;DHT22;9817;50.80926400;5.16316200;2023-05-21T00:35:51;15.70;99.90
19363;DHT22;9817;50.80926400;5.16316200;2023-05-21T00:38:16;15.60;99.90
19363;DHT22;9817;50.80926400;5.16316200;2023-05-21T00:40:43;15.60;99.90
19363;DHT22;9817;50.80926400;5.16316200;2023-05-21T00:43:09;15.50;99.90
19363;DHT22;9817;50.80926400;5.16316200;2023-05-21T00:45:35;15.40;99.90
19363;DHT22;9817;50.80926400;5.16316200;2023-05-21T00:48:02;15.30;99.90
19363;DHT22;9817;50.80926400;5.16316200;2023-05-21T00:50:29;15.30;99.90
19363;DHT22;9817;50.80926400;5.16316200;2023-05-21T00:52:55;15.30;99.90
19363;DHT22;9817;50.80926400;5.16316200;2023-05-21T00:55:21;15.30;99.90
19363;DHT22;9817;50.80926400;5.16316200;2023-05-21T00:57:47;15.20;99.90
19363;DHT22;9817;50.80926400;5.16316200;2023-05-21T01:00:14;15.10;99.90
19363;DHT22;9817;50.80926400;5.16316200;2023-05-21T01:02:41;15.10;99.90
19363;DHT22;9817;50.80926400;5.16316200;2023-05-21T01:05:09;15.00;99.90
19363;DHT22;9817;50.80926400;5.16316200;2023-05-21T01:07:37;15.00;99.90
19363;DHT22;9817;50.80926400;5.16316200;2023-05-21T01:10:04;15.00;99.90
19363;DHT22;9817;50.80926400;5.16316200;2023-05-21T01:12:32;15.00;99.90
19363;DHT22;9817;50.80926400;5.16316200;2023-05-21T01:15:04;14.90;99.90
19363;DHT22;9817;50.80926400;5.16316200;2023-05-21T01:17:30;14.90;99.90
19363;DHT22;9817;50.80926400;5.16316200;2023-05-21T01:19:58;14.90;99.90
19363;DHT22;9817;50.80926400;5.16316200;2023-05-21T01:22:25;14.90;99.90
19363;DHT22;9817;50.80926400;5.16316200;2023-05-21T01:24:53;14.90;99.90
19363;DHT22;9817;50.80926400;5.16316200;2023-05-21T01:27:20;14.90;99.90
19363;DHT22;9817;50.80926400;5.16316200;2023-05-21T01:29:45;14.90;99.90
19363;DHT22;9817;50.80926400;5.16316200;2023-05-21T01:32:30;14.90;99.90
19363;DHT22;9817;50.80926400;5.16316200;2023-05-21T01:35:04;14.90;99.90
19363;DHT22;9817;50.80926400;5.16316200;2023-05-21T01:43:13;14.60;99.90
19363;DHT22;9817;50.80926400;5.16316200;2023-05-21T01:45:41;14.70;99.90
19363;DHT22;9817;50.80926400;5.16316200;2023-05-21T01:48:08;14.80;99.90
19363;DHT22;9817;50.80926400;5.16316200;2023-05-21T01:50:35;14.70;99.90
19363;DHT22;9817;50.80926400;5.16316200;2023-05-21T01:53:02;14.70;99.90
19363;DHT22;9817;50.80926400;5.16316200;2023-05-21T01:55:30;14.40;99.90
19363;DHT22;9817;50.80926400;5.16316200;2023-05-21T01:57:57;14.40;99.90
19363;DHT22;9817;50.80926400;5.16316200;2023-05-21T02:00:25;14.40;99.90
19363;DHT22;9817;50.80926400;5.16316200;2023-05-21T02:02:53;14.50;99.90
19363;DHT22;9817;50.80926400;5.16316200;2023-05-21T02:05:18;14.50;99.90
19363;DHT22;9817;50.80926400;5.16316200;2023-05-21T02:07:44;14.60;99.90
19363;DHT22;9817;50.80926400;5.16316200;2023-05-21T02:10:10;14.60;99.90
19363;DHT22;9817;50.80926400;5.16316200;2023-05-21T02:12:37;14.50;99.90
19363;DHT22;9817;50.80926400;5.16316200;2023-05-21T02:15:03;14.50;99.90
19363;DHT22;9817;50.80926400;5.16316200;2023-05-21T02:17:29;14.50;99.90
19363;DHT22;9817;50.80926400;5.16316200;2023-05-21T02:20:01;14.50;99.90
19363;DHT22;9817;50.80926400;5.16316200;2023-05-21T02:22:36;14.50;99.90
19363;DHT22;9817;50.80926400;5.16316200;2023-05-21T02:25:03;14.50;99.90
19363;DHT22;9817;50.80926400;5.16316200;2023-05-21T02:27:29;14.40;99.90
19363;DHT22;9817;50.80926400;5.16316200;2023-05-21T02:29:56;14.40;99.90
19363;DHT22;9817;50.80926400;5.16316200;2023-05-21T02:32:21;14.40;99.90
19363;DHT22;9817;50.80926400;5.16316200;2023-05-21T02:34:48;14.40;99.90
19363;DHT22;9817;50.80926400;5.16316200;2023-05-21T02:37:14;14.40;99.90
19363;DHT22;9817;50.80926400;5.16316200;2023-05-21T02:39:40;14.40;99.90
19363;DHT22;9817;50.80926400;5.16316200;2023-05-21T02:42:05;14.40;99.90
19363;DHT22;9817;50.80926400;5.16316200;2023-05-21T02:44:31;14.40;99.90
19363;DHT22;9817;50.80926400;5.16316200;2023-05-21T02:46:57;14.40;99.90
19363;DHT22;9817;50.80926400;5.16316200;2023-05-21T02:49:22;14.40;99.90
19363;DHT22;9817;50.80926400;5.16316200;2023-05-21T02:51:48;14.40;99.90
19363;DHT22;9817;50.80926400;5.16316200;2023-05-21T02:54:14;14.30;99.90
19363;DHT22;9817;50.80926400;5.16316200;2023-05-21T02:56:40;14.40;99.90
19363;DHT22;9817;50.80926400;5.16316200;2023-05-21T02:59:05;14.30;99.90
19363;DHT22;9817;50.80926400;5.16316200;2023-05-21T03:01:31;14.40;99.90
19363;DHT22;9817;50.80926400;5.16316200;2023-05-21T03:03:57;14.40;99.90
19363;DHT22;9817;50.80926400;5.16316200;2023-05-21T03:06:22;14.40;99.90
19363;DHT22;9817;50.80926400;5.16316200;2023-05-21T03:08:48;14.40;99.90
19363;DHT22;9817;50.80926400;5.16316200;2023-05-21T03:11:14;14.20;99.90
19363;DHT22;9817;50.80926400;5.16316200;2023-05-21T03:13:39;14.30;99.90
19363;DHT22;9817;50.80926400;5.16316200;2023-05-21T03:16:06;14.30;99.90
19363;DHT22;9817;50.80926400;5.16316200;2023-05-21T03:18:32;14.30;99.90
19363;DHT22;9817;50.80926400;5.16316200;2023-05-21T03:20:58;14.30;99.90
19363;DHT22;9817;50.80926400;5.16316200;2023-05-21T03:23:23;14.30;99.90
19363;DHT22;9817;50.80926400;5.16316200;2023-05-21T03:25:50;14.20;99.90
19363;DHT22;9817;50.80926400;5.16316200;2023-05-21T03:28:15;14.20;99.90
19363;DHT22;9817;50.80926400;5.16316200;2023-05-21T03:30:42;14.20;99.90
19363;DHT22;9817;50.80926400;5.16316200;2023-05-21T03:33:11;14.20;99.90
19363;DHT22;9817;50.80926400;5.16316200;2023-05-21T03:35:38;14.20;99.90
19363;DHT22;9817;50.80926400;5.16316200;2023-05-21T03:38:03;14.30;99.90
19363;DHT22;9817;50.80926400;5.16316200;2023-05-21T03:40:29;14.20;99.90
19363;DHT22;9817;50.80926400;5.16316200;2023-05-21T03:42:55;14.20;99.90
19363;DHT22;9817;50.80926400;5.16316200;2023-05-21T03:45:20;14.20;99.90
19363;DHT22;9817;50.80926400;5.16316200;2023-05-21T03:47:46;14.10;99.90
19363;DHT22;9817;50.80926400;5.16316200;2023-05-21T03:50:13;14.10;99.90
19363;DHT22;9817;50.80926400;5.16316200;2023-05-21T03:52:38;14.10;99.90
19363;DHT22;9817;50.80926400;5.16316200;2023-05-21T03:55:05;14.20;99.90
19363;DHT22;9817;50.80926400;5.16316200;2023-05-21T03:57:31;14.10;99.90
19363;DHT22;9817;50.80926400;5.16316200;2023-05-21T03:59:57;14.10;99.90
19363;DHT22;9817;50.80926400;5.16316200;2023-05-21T04:02:25;14.00;99.90
19363;DHT22;9817;50.80926400;5.16316200;2023-05-21T04:04:51;14.00;99.90
19363;DHT22;9817;50.80926400;5.16316200;2023-05-21T04:07:18;13.90;99.90
19363;DHT22;9817;50.80926400;5.16316200;2023-05-21T04:09:44;14.00;99.90
19363;DHT22;9817;50.80926400;5.16316200;2023-05-21T04:12:11;14.20;99.90
19363;DHT22;9817;50.80926400;5.16316200;2023-05-21T04:14:37;14.20;99.90
19363;DHT22;9817;50.80926400;5.16316200;2023-05-21T04:17:03;14.20;99.90
19363;DHT22;9817;50.80926400;5.16316200;2023-05-21T04:19:31;14.20;99.90
19363;DHT22;9817;50.80926400;5.16316200;2023-05-21T04:21:57;14.30;99.90
19363;DHT22;9817;50.80926400;5.16316200;2023-05-21T04:24:23;14.20;99.90
19363;DHT22;9817;50.80926400;5.16316200;2023-05-21T04:26:49;14.30;99.90
19363;DHT22;9817;50.80926400;5.16316200;2023-05-21T04:29:15;14.30;99.90
19363;DHT22;9817;50.80926400;5.16316200;2023-05-21T04:31:48;14.40;99.90
19363;DHT22;9817;50.80926400;5.16316200;2023-05-21T04:34:14;14.40;99.90
19363;DHT22;9817;50.80926400;5.16316200;2023-05-21T04:36:44;14.40;99.90
19363;DHT22;9817;50.80926400;5.16316200;2023-05-21T04:39:11;14.40;99.90
19363;DHT22;9817;50.80926400;5.16316200;2023-05-21T04:41:37;14.50;99.90
19363;DHT22;9817;50.80926400;5.16316200;2023-05-21T04:44:05;14.60;99.90
19363;DHT22;9817;50.80926400;5.16316200;2023-05-21T04:46:32;14.70;99.90
19363;DHT22;9817;50.80926400;5.16316200;2023-05-21T04:49:02;14.70;99.90
19363;DHT22;9817;50.80926400;5.16316200;2023-05-21T04:51:28;14.70;99.90
19363;DHT22;9817;50.80926400;5.16316200;2023-05-21T04:53:54;14.70;99.90
19363;DHT22;9817;50.80926400;5.16316200;2023-05-21T04:56:20;14.70;99.90
19363;DHT22;9817;50.80926400;5.16316200;2023-05-21T04:58:52;14.70;99.90
19363;DHT22;9817;50.80926400;5.16316200;2023-05-21T05:01:19;14.80;99.90
19363;DHT22;9817;50.80926400;5.16316200;2023-05-21T05:03:48;14.90;99.90
19363;DHT22;9817;50.80926400;5.16316200;2023-05-21T05:06:14;15.10;99.90
19363;DHT22;9817;50.80926400;5.16316200;2023-05-21T05:08:39;15.20;99.90
19363;DHT22;9817;50.80926400;5.16316200;2023-05-21T05:11:06;15.30;99.90
19363;DHT22;9817;50.80926400;5.16316200;2023-05-21T05:13:33;15.40;99.90
19363;DHT22;9817;50.80926400;5.16316200;2023-05-21T05:15:58;15.50;99.90
19363;DHT22;9817;50.80926400;5.16316200;2023-05-21T05:18:24;15.60;99.90
19363;DHT22;9817;50.80926400;5.16316200;2023-05-21T05:20:50;15.70;99.90
19363;DHT22;9817;50.80926400;5.16316200;2023-05-21T05:23:16;15.80;99.90
19363;DHT22;9817;50.80926400;5.16316200;2023-05-21T05:25:42;15.80;99.90
19363;DHT22;9817;50.80926400;5.16316200;2023-05-21T05:28:07;15.80;99.90
19363;DHT22;9817;50.80926400;5.16316200;2023-05-21T05:30:33;16.00;99.90
19363;DHT22;9817;50.80926400;5.16316200;2023-05-21T05:32:59;16.20;99.90
19363;DHT22;9817;50.80926400;5.16316200;2023-05-21T05:35:25;16.30;99.90
19363;DHT22;9817;50.80926400;5.16316200;2023-05-21T05:37:51;16.40;99.90
19363;DHT22;9817;50.80926400;5.16316200;2023-05-21T05:40:17;16.40;99.90
19363;DHT22;9817;50.80926400;5.16316200;2023-05-21T05:42:42;16.40;99.90
19363;DHT22;9817;50.80926400;5.16316200;2023-05-21T05:45:08;16.60;99.90
19363;DHT22;9817;50.80926400;5.16316200;2023-05-21T05:47:34;16.70;99.90
19363;DHT22;9817;50.80926400;5.16316200;2023-05-21T05:50:00;16.60;99.90
19363;DHT22;9817;50.80926400;5.16316200;2023-05-21T05:52:25;16.70;99.90
19363;DHT22;9817;50.80926400;5.16316200;2023-05-21T05:54:51;16.80;99.90
19363;DHT22;9817;50.80926400;5.16316200;2023-05-21T05:57:17;16.90;99.90
19363;DHT22;9817;50.80926400;5.16316200;2023-05-21T05:59:42;17.00;99.90
19363;DHT22;9817;50.80926400;5.16316200;2023-05-21T06:02:08;17.10;99.90
19363;DHT22;9817;50.80926400;5.16316200;2023-05-21T06:04:33;17.30;99.90
19363;DHT22;9817;50.80926400;5.16316200;2023-05-21T06:06:59;17.30;99.90
19363;DHT22;9817;50.80926400;5.16316200;2023-05-21T06:09:25;17.40;99.90
19363;DHT22;9817;50.80926400;5.16316200;2023-05-21T06:11:51;17.50;99.90
19363;DHT22;9817;50.80926400;5.16316200;2023-05-21T06:14:16;17.80;99.90
19363;DHT22;9817;50.80926400;5.16316200;2023-05-21T06:16:42;17.80;99.90
19363;DHT22;9817;50.80926400;5.16316200;2023-05-21T06:19:08;17.90;99.90
19363;DHT22;9817;50.80926400;5.16316200;2023-05-21T06:21:33;18.10;99.90
19363;DHT22;9817;50.80926400;5.16316200;2023-05-21T06:23:59;18.40;99.90
19363;DHT22;9817;50.80926400;5.16316200;2023-05-21T06:26:25;18.60;99.90
19363;DHT22;9817;50.80926400;5.16316200;2023-05-21T06:28:51;18.50;99.90
19363;DHT22;9817;50.80926400;5.16316200;2023-05-21T06:31:16;18.30;99.90
19363;DHT22;9817;50.80926400;5.16316200;2023-05-21T06:33:42;17.90;99.90
19363;DHT22;9817;50.80926400;5.16316200;2023-05-21T06:36:08;18.10;99.90
19363;DHT22;9817;50.80926400;5.16316200;2023-05-21T06:38:33;18.60;99.90
19363;DHT22;9817;50.80926400;5.16316200;2023-05-21T06:41:01;18.90;99.90
19363;DHT22;9817;50.80926400;5.16316200;2023-05-21T06:43:28;19.10;99.90
19363;DHT22;9817;50.80926400;5.16316200;2023-05-21T06:45:53;19.00;99.90
19363;DHT22;9817;50.80926400;5.16316200;2023-05-21T06:48:19;18.90;99.90
19363;DHT22;9817;50.80926400;5.16316200;2023-05-21T06:50:44;19.00;99.90
19363;DHT22;9817;50.80926400;5.16316200;2023-05-21T06:53:10;19.30;99.90
19363;DHT22;9817;50.80926400;5.16316200;2023-05-21T06:55:36;19.30;99.90
19363;DHT22;9817;50.80926400;5.16316200;2023-05-21T06:58:01;19.50;99.90
19363;DHT22;9817;50.80926400;5.16316200;2023-05-21T07:00:27;19.00;99.90
19363;DHT22;9817;50.80926400;5.16316200;2023-05-21T07:02:53;19.00;99.90
19363;DHT22;9817;50.80926400;5.16316200;2023-05-21T07:05:18;19.00;99.90
19363;DHT22;9817;50.80926400;5.16316200;2023-05-21T07:07:44;19.10;99.90
19363;DHT22;9817;50.80926400;5.16316200;2023-05-21T07:10:10;19.20;99.90
19363;DHT22;9817;50.80926400;5.16316200;2023-05-21T07:12:35;19.20;99.90
19363;DHT22;9817;50.80926400;5.16316200;2023-05-21T07:15:01;18.90;99.90
19363;DHT22;9817;50.80926400;5.16316200;2023-05-21T07:17:27;19.00;99.90
19363;DHT22;9817;50.80926400;5.16316200;2023-05-21T07:19:52;19.30;99.90
19363;DHT22;9817;50.80926400;5.16316200;2023-05-21T07:22:18;19.50;99.90
19363;DHT22;9817;50.80926400;5.16316200;2023-05-21T07:24:43;19.80;99.90
19363;DHT22;9817;50.80926400;5.16316200;2023-05-21T07:27:09;20.10;99.90
19363;DHT22;9817;50.80926400;5.16316200;2023-05-21T07:29:35;20.50;99.90
19363;DHT22;9817;50.80926400;5.16316200;2023-05-21T07:32:01;21.00;99.90
19363;DHT22;9817;50.80926400;5.16316200;2023-05-21T07:34:28;21.20;99.90
19363;DHT22;9817;50.80926400;5.16316200;2023-05-21T07:36:54;21.50;99.90
19363;DHT22;9817;50.80926400;5.16316200;2023-05-21T07:39:19;21.80;99.90
19363;DHT22;9817;50.80926400;5.16316200;2023-05-21T07:41:45;22.30;99.90
19363;DHT22;9817;50.80926400;5.16316200;2023-05-21T07:44:11;23.80;99.90
19363;DHT22;9817;50.80926400;5.16316200;2023-05-21T07:46:36;25.70;99.90
19363;DHT22;9817;50.80926400;5.16316200;2023-05-21T07:49:02;27.70;99.90
19363;DHT22;9817;50.80926400;5.16316200;2023-05-21T07:51:27;28.70;99.90
19363;DHT22;9817;50.80926400;5.16316200;2023-05-21T07:53:53;29.60;99.90
19363;DHT22;9817;50.80926400;5.16316200;2023-05-21T07:56:19;29.90;99.40
19363;DHT22;9817;50.80926400;5.16316200;2023-05-21T07:58:45;30.60;97.80
19363;DHT22;9817;50.80926400;5.16316200;2023-05-21T08:01:11;30.60;95.30
19363;DHT22;9817;50.80926400;5.16316200;2023-05-21T08:03:37;30.60;95.40
19363;DHT22;9817;50.80926400;5.16316200;2023-05-21T08:06:03;30.10;95.50
19363;DHT22;9817;50.80926400;5.16316200;2023-05-21T08:08:28;29.90;95.90
19363;DHT22;9817;50.80926400;5.16316200;2023-05-21T08:10:54;29.30;96.30
19363;DHT22;9817;50.80926400;5.16316200;2023-05-21T08:13:20;28.90;96.30
19363;DHT22;9817;50.80926400;5.16316200;2023-05-21T08:15:47;28.60;97.40
19363;DHT22;9817;50.80926400;5.16316200;2023-05-21T08:18:12;28.30;97.20
19363;DHT22;9817;50.80926400;5.16316200;2023-05-21T08:20:38;28.00;97.70
19363;DHT22;9817;50.80926400;5.16316200;2023-05-21T08:23:04;27.40;98.50
19363;DHT22;9817;50.80926400;5.16316200;2023-05-21T08:25:30;28.20;98.10
19363;DHT22;9817;50.80926400;5.16316200;2023-05-21T08:27:56;29.00;97.40
19363;DHT22;9817;50.80926400;5.16316200;2023-05-21T08:30:22;28.90;97.20
19363;DHT22;9817;50.80926400;5.16316200;2023-05-21T08:32:48;29.50;96.10
19363;DHT22;9817;50.80926400;5.16316200;2023-05-21T08:35:13;30.50;94.80
19363;DHT22;9817;50.80926400;5.16316200;2023-05-21T08:37:39;31.30;94.00
19363;DHT22;9817;50.80926400;5.16316200;2023-05-21T08:40:05;32.00;92.50
19363;DHT22;9817;50.80926400;5.16316200;2023-05-21T08:42:46;32.20;92.20
19363;DHT22;9817;50.80926400;5.16316200;2023-05-21T08:45:14;32.50;91.30
19363;DHT22;9817;50.80926400;5.16316200;2023-05-21T08:47:42;32.70;91.10
19363;DHT22;9817;50.80926400;5.16316200;2023-05-21T08:50:10;32.80;89.80
19363;DHT22;9817;50.80926400;5.16316200;2023-05-21T08:52:36;32.80;88.60
19363;DHT22;9817;50.80926400;5.16316200;2023-05-21T08:55:05;32.40;89.10
19363;DHT22;9817;50.80926400;5.16316200;2023-05-21T08:57:32;32.00;90.20
19363;DHT22;9817;50.80926400;5.16316200;2023-05-21T08:59:58;32.60;89.60
19363;DHT22;9817;50.80926400;5.16316200;2023-05-21T09:02:24;33.10;88.20
19363;DHT22;9817;50.80926400;5.16316200;2023-05-21T09:04:52;33.30;87.40
19363;DHT22;9817;50.80926400;5.16316200;2023-05-21T09:07:25;32.70;86.20
19363;DHT22;9817;50.80926400;5.16316200;2023-05-21T09:10:07;32.70;85.90
19363;DHT22;9817;50.80926400;5.16316200;2023-05-21T09:12:34;33.00;87.30
19363;DHT22;9817;50.80926400;5.16316200;2023-05-21T09:15:00;33.70;85.70
19363;DHT22;9817;50.80926400;5.16316200;2023-05-21T09:17:26;34.20;83.80
19363;DHT22;9817;50.80926400;5.16316200;2023-05-21T09:22:36;34.80;81.30
19363;DHT22;9817;50.80926400;5.16316200;2023-05-21T09:25:05;35.00;81.30
19363;DHT22;9817;50.80926400;5.16316200;2023-05-21T09:27:32;34.70;79.50
19363;DHT22;9817;50.80926400;5.16316200;2023-05-21T09:29:58;34.30;79.90
19363;DHT22;9817;50.80926400;5.16316200;2023-05-21T09:32:24;33.50;80.60
19363;DHT22;9817;50.80926400;5.16316200;2023-05-21T09:34:50;32.60;82.50
19363;DHT22;9817;50.80926400;5.16316200;2023-05-21T09:37:15;33.20;82.60
19363;DHT22;9817;50.80926400;5.16316200;2023-05-21T09:39:41;34.70;79.70
19363;DHT22;9817;50.80926400;5.16316200;2023-05-21T09:42:07;35.50;78.80
19363;DHT22;9817;50.80926400;5.16316200;2023-05-21T09:44:34;34.70;76.70
19363;DHT22;9817;50.80926400;5.16316200;2023-05-21T09:47:01;34.10;77.90
19363;DHT22;9817;50.80926400;5.16316200;2023-05-21T09:49:26;35.40;78.10
19363;DHT22;9817;50.80926400;5.16316200;2023-05-21T09:51:58;35.60;77.40
19363;DHT22;9817;50.80926400;5.16316200;2023-05-21T09:54:31;36.00;74.40
19363;DHT22;9817;50.80926400;5.16316200;2023-05-21T09:56:59;37.00;71.80
19363;DHT22;9817;50.80926400;5.16316200;2023-05-21T09:59:35;35.80;73.30
19363;DHT22;9817;50.80926400;5.16316200;2023-05-21T10:02:01;35.40;73.10
19363;DHT22;9817;50.80926400;5.16316200;2023-05-21T10:04:28;34.50;74.50
19363;DHT22;9817;50.80926400;5.16316200;2023-05-21T10:06:55;34.80;74.70
19363;DHT22;9817;50.80926400;5.16316200;2023-05-21T10:09:23;34.90;76.60
19363;DHT22;9817;50.80926400;5.16316200;2023-05-21T10:11:52;34.80;75.80
19363;DHT22;9817;50.80926400;5.16316200;2023-05-21T10:14:22;35.50;75.30
19363;DHT22;9817;50.80926400;5.16316200;2023-05-21T10:16:51;35.10;73.20
19363;DHT22;9817;50.80926400;5.16316200;2023-05-21T10:19:19;34.00;76.50
19363;DHT22;9817;50.80926400;5.16316200;2023-05-21T10:21:45;33.30;76.40
19363;DHT22;9817;50.80926400;5.16316200;2023-05-21T10:24:11;32.70;79.50
19363;DHT22;9817;50.80926400;5.16316200;2023-05-21T10:26:38;32.00;82.60
19363;DHT22;9817;50.80926400;5.16316200;2023-05-21T10:29:06;30.70;83.40
19363;DHT22;9817;50.80926400;5.16316200;2023-05-21T10:31:33;29.60;87.90
19363;DHT22;9817;50.80926400;5.16316200;2023-05-21T10:33:59;28.80;90.00
19363;DHT22;9817;50.80926400;5.16316200;2023-05-21T10:36:29;27.90;91.10
19363;DHT22;9817;50.80926400;5.16316200;2023-05-21T10:38:59;28.00;92.20
19363;DHT22;9817;50.80926400;5.16316200;2023-05-21T10:41:27;27.70;91.30
19363;DHT22;9817;50.80926400;5.16316200;2023-05-21T10:44:15;28.00;91.70
19363;DHT22;9817;50.80926400;5.16316200;2023-05-21T10:55:03;27.60;94.00
19363;DHT22;9817;50.80926400;5.16316200;2023-05-21T11:00:45;26.80;95.20
19363;DHT22;9817;50.80926400;5.16316200;2023-05-21T11:03:12;26.80;94.70
19363;DHT22;9817;50.80926400;5.16316200;2023-05-21T11:05:40;27.20;94.90
19363;DHT22;9817;50.80926400;5.16316200;2023-05-21T11:13:18;27.40;96.20
19363;DHT22;9817;50.80926400;5.16316200;2023-05-21T11:26:24;27.10;95.10
19363;DHT22;9817;50.80926400;5.16316200;2023-05-21T11:29:10;26.60;96.10
19363;DHT22;9817;50.80926400;5.16316200;2023-05-21T11:31:36;26.40;97.20
19363;DHT22;9817;50.80926400;5.16316200;2023-05-21T11:34:21;26.70;97.80
19363;DHT22;9817;50.80926400;5.16316200;2023-05-21T11:39:40;27.10;96.50
19363;DHT22;9817;50.80926400;5.16316200;2023-05-21T11:42:06;27.10;97.30
19363;DHT22;9817;50.80926400;5.16316200;2023-05-21T11:47:10;26.70;97.10
19363;DHT22;9817;50.80926400;5.16316200;2023-05-21T11:49:36;26.60;97.20
19363;DHT22;9817;50.80926400;5.16316200;2023-05-21T11:52:04;26.80;97.60
19363;DHT22;9817;50.80926400;5.16316200;2023-05-21T11:54:31;27.30;96.80
19363;DHT22;9817;50.80926400;5.16316200;2023-05-21T11:57:11;27.20;98.00
19363;DHT22;9817;50.80926400;5.16316200;2023-05-21T11:59:40;27.60;97.50
19363;DHT22;9817;50.80926400;5.16316200;2023-05-21T12:02:06;27.40;97.50
19363;DHT22;9817;50.80926400;5.16316200;2023-05-21T12:04:33;27.30;96.40
19363;DHT22;9817;50.80926400;5.16316200;2023-05-21T12:07:07;27.40;97.10
19363;DHT22;9817;50.80926400;5.16316200;2023-05-21T12:12:07;26.80;96.90
19363;DHT22;9817;50.80926400;5.16316200;2023-05-21T12:14:37;26.70;98.70
19363;DHT22;9817;50.80926400;5.16316200;2023-05-21T12:17:04;26.40;99.80
19363;DHT22;9817;50.80926400;5.16316200;2023-05-21T12:19:32;26.40;99.30
19363;DHT22;9817;50.80926400;5.16316200;2023-05-21T12:22:02;26.70;98.00
19363;DHT22;9817;50.80926400;5.16316200;2023-05-21T12:24:32;26.80;98.50
19363;DHT22;9817;50.80926400;5.16316200;2023-05-21T12:26:59;26.60;97.70
19363;DHT22;9817;50.80926400;5.16316200;2023-05-21T12:29:30;26.60;99.30
19363;DHT22;9817;50.80926400;5.16316200;2023-05-21T12:31:59;26.90;98.50
19363;DHT22;9817;50.80926400;5.16316200;2023-05-21T12:34:48;26.40;98.50
19363;DHT22;9817;50.80926400;5.16316200;2023-05-21T12:37:14;26.80;99.90
19363;DHT22;9817;50.80926400;5.16316200;2023-05-21T12:39:45;26.90;99.90
19363;DHT22;9817;50.80926400;5.16316200;2023-05-21T12:42:12;27.10;99.90
19363;DHT22;9817;50.80926400;5.16316200;2023-05-21T12:44:43;27.20;98.80
19363;DHT22;9817;50.80926400;5.16316200;2023-05-21T12:47:09;27.20;99.00
19363;DHT22;9817;50.80926400;5.16316200;2023-05-21T12:49:37;27.10;98.60
19363;DHT22;9817;50.80926400;5.16316200;2023-05-21T12:52:07;27.20;98.80
19363;DHT22;9817;50.80926400;5.16316200;2023-05-21T12:54:34;27.80;98.10
19363;DHT22;9817;50.80926400;5.16316200;2023-05-21T12:57:14;28.20;98.60
19363;DHT22;9817;50.80926400;5.16316200;2023-05-21T13:02:27;28.10;97.40
19363;DHT22;9817;50.80926400;5.16316200;2023-05-21T13:04:55;28.10;97.70
19363;DHT22;9817;50.80926400;5.16316200;2023-05-21T13:07:21;27.90;98.30
19363;DHT22;9817;50.80926400;5.16316200;2023-05-21T13:09:47;27.60;98.40
19363;DHT22;9817;50.80926400;5.16316200;2023-05-21T13:12:14;27.60;99.00
19363;DHT22;9817;50.80926400;5.16316200;2023-05-21T13:14:40;27.40;98.70
19363;DHT22;9817;50.80926400;5.16316200;2023-05-21T13:17:05;27.50;99.90
19363;DHT22;9817;50.80926400;5.16316200;2023-05-21T13:19:31;27.60;99.50
19363;DHT22;9817;50.80926400;5.16316200;2023-05-21T13:21:57;27.40;99.70
19363;DHT22;9817;50.80926400;5.16316200;2023-05-21T13:24:22;27.40;99.90
19363;DHT22;9817;50.80926400;5.16316200;2023-05-21T13:26:48;27.10;99.90
19363;DHT22;9817;50.80926400;5.16316200;2023-05-21T13:29:14;27.20;99.90
19363;DHT22;9817;50.80926400;5.16316200;2023-05-21T13:31:42;27.20;99.90
19363;DHT22;9817;50.80926400;5.16316200;2023-05-21T13:34:12;27.10;99.90
19363;DHT22;9817;50.80926400;5.16316200;2023-05-21T13:36:38;27.30;99.70
19363;DHT22;9817;50.80926400;5.16316200;2023-05-21T13:39:04;27.30;99.20
19363;DHT22;9817;50.80926400;5.16316200;2023-05-21T13:41:30;27.30;99.90
19363;DHT22;9817;50.80926400;5.16316200;2023-05-21T13:43:56;27.20;99.90
19363;DHT22;9817;50.80926400;5.16316200;2023-05-21T13:46:22;26.90;99.90
19363;DHT22;9817;50.80926400;5.16316200;2023-05-21T13:48:47;27.10;99.90
19363;DHT22;9817;50.80926400;5.16316200;2023-05-21T13:51:13;27.10;99.90
19363;DHT22;9817;50.80926400;5.16316200;2023-05-21T13:53:38;27.20;99.90
19363;DHT22;9817;50.80926400;5.16316200;2023-05-21T13:56:04;27.30;99.90
19363;DHT22;9817;50.80926400;5.16316200;2023-05-21T13:58:30;27.40;99.90
19363;DHT22;9817;50.80926400;5.16316200;2023-05-21T14:01:02;27.60;99.90
19363;DHT22;9817;50.80926400;5.16316200;2023-05-21T14:03:29;27.60;99.90
19363;DHT22;9817;50.80926400;5.16316200;2023-05-21T14:05:56;27.30;99.90
19363;DHT22;9817;50.80926400;5.16316200;2023-05-21T14:08:23;27.10;99.90
19363;DHT22;9817;50.80926400;5.16316200;2023-05-21T14:10:50;27.50;99.90
19363;DHT22;9817;50.80926400;5.16316200;2023-05-21T14:13:16;27.70;99.90
19363;DHT22;9817;50.80926400;5.16316200;2023-05-21T14:15:42;27.80;99.90
19363;DHT22;9817;50.80926400;5.16316200;2023-05-21T14:18:08;27.80;99.90
19363;DHT22;9817;50.80926400;5.16316200;2023-05-21T14:20:37;27.80;99.90